createdAt,value
2018-06-17T00:01:40.109Z,950.06
2018-06-17T00:04:06.404Z,950.06
2018-06-17T00:06:32.698Z,950.04
2018-06-17T00:08:58.993Z,950.16
2018-06-17T00:11:25.320Z,950.06
2018-06-17T00:13:51.618Z,950.06
2018-06-17T00:16:17.911Z,950.09
2018-06-17T00:18:44.213Z,950.14
2018-06-17T00:21:10.511Z,950.10
2018-06-17T00:23:36.844Z,950.11
2018-06-17T00:26:03.138Z,950.13
2018-06-17T00:28:29.440Z,950.09
2018-06-17T00:30:55.740Z,950.10
2018-06-17T00:33:22.046Z,950.05
2018-06-17T00:35:48.375Z,950.02
2018-06-17T00:38:14.679Z,950.00
2018-06-17T00:40:40.971Z,950.05
2018-06-17T00:43:07.272Z,950.09
2018-06-17T00:45:33.567Z,950.12
2018-06-17T00:47:59.897Z,950.14
2018-06-17T00:50:26.192Z,950.08
2018-06-17T00:52:52.492Z,950.14
2018-06-17T00:55:18.795Z,950.14
2018-06-17T00:57:45.084Z,950.12
2018-06-17T01:00:11.420Z,950.05
2018-06-17T01:02:37.710Z,949.97
2018-06-17T01:05:04.008Z,950.01
2018-06-17T01:07:30.311Z,950.00
2018-06-17T01:09:56.601Z,950.03
2018-06-17T01:12:22.928Z,949.98
2018-06-17T01:14:49.223Z,949.90
2018-06-17T01:17:15.512Z,949.97
2018-06-17T01:19:41.810Z,949.94
2018-06-17T01:22:08.102Z,949.85
2018-06-17T01:24:34.431Z,949.97
2018-06-17T01:27:00.716Z,949.99
2018-06-17T01:29:27.014Z,949.97
2018-06-17T01:31:53.313Z,949.95
2018-06-17T01:34:19.605Z,949.99
2018-06-17T01:36:45.949Z,950.00
2018-06-17T01:39:12.244Z,949.97
2018-06-17T01:41:38.537Z,949.97
2018-06-17T01:44:04.865Z,949.99
2018-06-17T01:46:31.162Z,949.98
2018-06-17T01:48:57.464Z,949.97
2018-06-17T01:51:23.806Z,949.89
2018-06-17T01:53:50.100Z,949.97
2018-06-17T01:56:16.391Z,950.00
2018-06-17T01:58:42.688Z,950.04
2018-06-17T02:01:08.983Z,950.03
2018-06-17T02:03:35.304Z,950.01
2018-06-17T02:06:01.596Z,950.05
2018-06-17T02:08:27.889Z,950.00
2018-06-17T02:10:54.189Z,950.00
2018-06-17T02:13:20.482Z,950.04
2018-06-17T02:15:46.808Z,950.15
2018-06-17T02:18:13.100Z,950.09
2018-06-17T02:20:39.397Z,950.07
2018-06-17T02:23:05.699Z,950.06
2018-06-17T02:25:31.995Z,950.07
2018-06-17T02:27:58.339Z,950.02
2018-06-17T02:30:24.641Z,950.10
2018-06-17T02:32:50.935Z,950.12
2018-06-17T02:35:17.262Z,950.12
2018-06-17T02:37:43.572Z,950.28
2018-06-17T02:40:09.865Z,950.19
2018-06-17T02:42:36.162Z,950.20
2018-06-17T02:45:02.457Z,950.18
2018-06-17T02:47:28.787Z,950.14
2018-06-17T02:49:55.076Z,950.19
2018-06-17T02:52:21.375Z,950.30
2018-06-17T02:54:47.666Z,950.31
2018-06-17T02:57:13.954Z,950.26
2018-06-17T02:59:40.276Z,950.30
2018-06-17T03:02:06.568Z,950.27
2018-06-17T03:04:32.862Z,950.21
2018-06-17T03:06:59.158Z,950.22
2018-06-17T03:09:25.455Z,950.22
2018-06-17T03:11:51.801Z,950.19
2018-06-17T03:14:18.095Z,950.10
2018-06-17T03:16:44.386Z,950.14
2018-06-17T03:19:10.683Z,950.15
2018-06-17T03:21:36.985Z,950.22
2018-06-17T03:24:03.318Z,950.28
2018-06-17T03:26:29.611Z,950.38
2018-06-17T03:28:55.906Z,950.37
2018-06-17T03:31:22.205Z,950.41
2018-06-17T03:33:48.501Z,950.39
2018-06-17T03:36:14.820Z,950.43
2018-06-17T03:38:41.118Z,950.51
2018-06-17T03:41:07.414Z,950.42
2018-06-17T03:43:33.720Z,950.39
2018-06-17T03:46:00.019Z,950.42
2018-06-17T03:48:26.354Z,950.37
2018-06-17T03:50:52.646Z,950.39
2018-06-17T03:53:18.948Z,950.46
2018-06-17T03:55:45.246Z,950.38
2018-06-17T03:58:11.544Z,950.34
2018-06-17T04:00:37.877Z,950.30
2018-06-17T04:03:04.177Z,950.32
2018-06-17T04:05:30.470Z,950.28
2018-06-17T04:07:56.766Z,950.32
2018-06-17T04:10:23.072Z,950.26
2018-06-17T04:12:49.387Z,950.31
2018-06-17T04:15:15.688Z,950.38
2018-06-17T04:17:41.990Z,950.39
2018-06-17T04:20:08.289Z,950.39
2018-06-17T04:22:34.583Z,950.37
2018-06-17T04:25:00.908Z,950.34
2018-06-17T04:27:27.201Z,950.39
2018-06-17T04:29:53.494Z,950.37
2018-06-17T04:32:19.822Z,950.40
2018-06-17T04:34:46.111Z,950.32
2018-06-17T04:37:12.402Z,950.26
2018-06-17T04:39:38.700Z,950.29
2018-06-17T04:42:04.995Z,950.30
2018-06-17T04:44:31.326Z,950.29
2018-06-17T04:46:57.624Z,950.33
2018-06-17T04:49:23.919Z,950.36
2018-06-17T04:51:50.210Z,950.35
2018-06-17T04:54:16.501Z,950.44
2018-06-17T04:56:42.825Z,950.43
2018-06-17T04:59:09.116Z,950.41
2018-06-17T05:01:35.411Z,950.42
2018-06-17T05:04:01.720Z,950.36
2018-06-17T05:06:28.008Z,950.35
2018-06-17T05:08:54.323Z,950.40
2018-06-17T05:11:20.607Z,950.44
2018-06-17T05:13:46.895Z,950.42
2018-06-17T05:16:13.191Z,950.43
2018-06-17T05:18:39.520Z,950.44
2018-06-17T05:21:05.851Z,950.45
2018-06-17T05:23:32.144Z,950.48
2018-06-17T05:25:58.429Z,950.48
2018-06-17T05:28:24.757Z,950.47
2018-06-17T05:30:51.048Z,950.65
2018-06-17T05:33:17.335Z,950.65
2018-06-17T05:35:43.655Z,950.73
2018-06-17T05:38:09.949Z,950.70
2018-06-17T05:40:36.235Z,950.66
2018-06-17T05:43:02.569Z,950.68
2018-06-17T05:45:28.861Z,950.68
2018-06-17T05:47:55.167Z,950.67
2018-06-17T05:50:21.489Z,950.71
2018-06-17T05:52:47.787Z,950.75
2018-06-17T05:55:14.075Z,950.73
2018-06-17T05:57:40.411Z,950.70
2018-06-17T06:00:06.710Z,950.76
2018-06-17T06:02:33.018Z,950.76
2018-06-17T06:04:59.340Z,950.78
2018-06-17T06:07:25.657Z,950.86
2018-06-17T06:09:51.955Z,950.89
2018-06-17T06:12:18.273Z,950.91
2018-06-17T06:14:44.572Z,950.94
2018-06-17T06:17:10.869Z,950.97
2018-06-17T06:19:37.188Z,950.96
2018-06-17T06:22:03.481Z,950.96
2018-06-17T06:24:29.771Z,950.97
2018-06-17T06:26:56.099Z,950.95
2018-06-17T06:29:22.388Z,950.88
2018-06-17T06:31:48.681Z,950.81
2018-06-17T06:34:15.002Z,950.81
2018-06-17T06:36:41.299Z,950.77
2018-06-17T06:39:07.595Z,950.76
2018-06-17T06:41:33.938Z,950.73
2018-06-17T06:44:00.229Z,950.78
2018-06-17T06:46:26.525Z,950.85
2018-06-17T06:48:52.814Z,950.76
2018-06-17T06:51:19.109Z,950.72
2018-06-17T06:53:45.402Z,950.73
2018-06-17T06:56:11.700Z,950.68
2018-06-17T06:58:37.989Z,950.63
2018-06-17T07:01:04.276Z,950.63
2018-06-17T07:03:30.609Z,950.63
2018-06-17T07:05:56.905Z,950.60
2018-06-17T07:08:23.194Z,950.68
2018-06-17T07:10:49.512Z,950.69
2018-06-17T07:13:15.801Z,950.69
2018-06-17T07:15:42.094Z,950.66
2018-06-17T07:18:08.389Z,950.65
2018-06-17T07:20:34.681Z,950.68
2018-06-17T07:23:00.972Z,950.62
2018-06-17T07:25:27.265Z,950.63
2018-06-17T07:27:53.553Z,950.57
2018-06-17T07:30:19.839Z,950.58
2018-06-17T07:32:46.172Z,950.56
2018-06-17T07:35:12.481Z,950.57
2018-06-17T07:37:38.766Z,950.55
2018-06-17T07:40:05.059Z,950.55
2018-06-17T07:42:31.347Z,950.57
2018-06-17T07:44:57.651Z,950.57
2018-06-17T07:47:23.972Z,950.59
2018-06-17T07:49:50.261Z,950.55
2018-06-17T07:52:16.563Z,950.56
2018-06-17T07:54:42.879Z,950.62
2018-06-17T07:57:09.171Z,950.56
2018-06-17T07:59:35.497Z,950.52
2018-06-17T08:02:01.790Z,950.54
2018-06-17T08:04:28.079Z,950.52
2018-06-17T08:06:54.369Z,950.46
2018-06-17T08:09:20.660Z,950.46
2018-06-17T08:11:46.958Z,950.43
2018-06-17T08:14:13.290Z,950.40
2018-06-17T08:16:39.576Z,950.38
2018-06-17T08:19:05.870Z,950.33
2018-06-17T08:21:32.211Z,950.35
2018-06-17T08:23:58.499Z,950.30
2018-06-17T08:26:24.792Z,950.31
2018-06-17T08:28:51.095Z,950.30
2018-06-17T08:31:17.392Z,950.28
2018-06-17T08:33:43.729Z,950.21
2018-06-17T08:36:10.021Z,950.27
2018-06-17T08:38:36.310Z,950.20
2018-06-17T08:41:02.596Z,950.19
2018-06-17T08:43:28.882Z,950.14
2018-06-17T08:45:55.205Z,950.15
2018-06-17T08:48:21.502Z,950.12
2018-06-17T08:50:47.828Z,950.13
2018-06-17T08:53:14.083Z,950.13
2018-06-17T08:55:40.384Z,950.08
2018-06-17T08:58:06.707Z,950.05
2018-06-17T09:00:33.012Z,950.05
2018-06-17T09:02:59.300Z,950.10
2018-06-17T09:05:25.601Z,950.04
2018-06-17T09:07:51.902Z,950.02
2018-06-17T09:10:18.227Z,949.99
2018-06-17T09:12:44.517Z,949.90
2018-06-17T09:15:10.810Z,949.85
2018-06-17T09:17:37.158Z,949.86
2018-06-17T09:20:03.453Z,949.73
2018-06-17T09:22:29.744Z,949.80
2018-06-17T09:24:56.069Z,949.72
2018-06-17T09:27:22.363Z,949.74
2018-06-17T09:29:48.659Z,949.73
2018-06-17T09:32:15.003Z,949.69
2018-06-17T09:34:41.255Z,949.70
2018-06-17T09:37:07.582Z,949.58
2018-06-17T09:39:33.873Z,949.54
2018-06-17T09:42:00.184Z,949.49
2018-06-17T09:44:26.512Z,949.48
2018-06-17T09:46:52.792Z,949.48
2018-06-17T09:49:19.118Z,949.45
2018-06-17T09:51:45.415Z,949.40
2018-06-17T09:54:11.705Z,949.35
2018-06-17T09:56:37.995Z,949.28
2018-06-17T09:59:04.294Z,949.30
2018-06-17T10:01:30.591Z,949.29
2018-06-17T10:03:56.885Z,949.33
2018-06-17T10:06:23.216Z,949.30
2018-06-17T10:08:49.526Z,949.30
2018-06-17T10:11:15.821Z,949.22
2018-06-17T10:13:42.160Z,949.18
2018-06-17T10:16:08.450Z,949.16
2018-06-17T10:18:34.741Z,949.17
2018-06-17T10:21:01.060Z,949.17
2018-06-17T10:23:27.362Z,949.17
2018-06-17T10:25:53.655Z,949.18
2018-06-17T10:28:20.001Z,949.10
2018-06-17T10:30:46.297Z,949.13
2018-06-17T10:35:38.942Z,949.12
2018-06-17T10:38:05.237Z,949.14
2018-06-17T10:40:31.530Z,949.07
2018-06-17T10:42:57.856Z,949.08
2018-06-17T10:45:24.148Z,949.08
2018-06-17T10:47:50.434Z,949.12
2018-06-17T10:50:16.730Z,949.11
2018-06-17T10:52:43.020Z,949.12
2018-06-17T10:55:09.342Z,949.17
2018-06-17T10:57:35.635Z,949.09
2018-06-17T11:00:01.925Z,949.06
2018-06-17T11:02:28.220Z,949.03
2018-06-17T11:04:54.512Z,949.02
2018-06-17T11:07:23.102Z,949.07
2018-06-17T11:09:49.443Z,949.03
2018-06-17T11:12:15.735Z,948.93
2018-06-17T11:14:42.038Z,948.83
2018-06-17T11:17:10.560Z,948.82
2018-06-17T11:19:36.925Z,948.84
2018-06-17T11:22:03.168Z,948.82
2018-06-17T11:24:29.454Z,948.81
2018-06-17T11:26:55.780Z,948.71
2018-06-17T11:29:22.072Z,948.74
2018-06-17T11:31:48.381Z,948.74
2018-06-17T11:34:14.673Z,948.75
2018-06-17T11:36:40.959Z,948.79
2018-06-17T11:39:07.313Z,948.76
2018-06-17T11:41:33.647Z,948.73
2018-06-17T11:44:00.003Z,948.70
2018-06-17T11:46:26.323Z,948.67
2018-06-17T11:48:52.610Z,948.71
2018-06-17T11:51:19.146Z,948.73
2018-06-17T11:53:45.615Z,948.83
2018-06-17T11:56:11.902Z,948.81
2018-06-17T11:58:38.217Z,948.75
2018-06-17T12:01:04.549Z,948.74
2018-06-17T12:03:30.862Z,948.78
2018-06-17T12:05:57.148Z,948.81
2018-06-17T12:08:23.482Z,948.83
2018-06-17T12:10:49.780Z,948.74
2018-06-17T12:13:16.086Z,948.70
2018-06-17T12:15:42.418Z,948.70
2018-06-17T12:18:08.708Z,948.65
2018-06-17T12:20:35.005Z,948.59
2018-06-17T12:23:01.325Z,948.66
2018-06-17T12:25:27.716Z,948.60
2018-06-17T12:27:53.957Z,948.66
2018-06-17T12:30:20.281Z,948.61
2018-06-17T12:32:46.577Z,948.67
2018-06-17T12:35:13.161Z,948.70
2018-06-17T12:37:39.511Z,948.64
2018-06-17T12:40:05.795Z,948.63
2018-06-17T12:42:32.084Z,948.63
2018-06-17T12:44:58.457Z,948.63
2018-06-17T12:47:24.755Z,948.59
2018-06-17T12:49:51.055Z,948.55
2018-06-17T12:52:17.348Z,948.55
2018-06-17T12:54:43.634Z,948.56
2018-06-17T12:57:10.010Z,948.54
2018-06-17T12:59:36.320Z,948.45
2018-06-17T13:02:02.666Z,948.52
2018-06-17T13:04:28.913Z,948.47
2018-06-17T13:06:55.344Z,948.43
2018-06-17T13:09:22.278Z,948.48
2018-06-17T13:11:48.576Z,948.46
2018-06-17T13:14:14.884Z,948.53
2018-06-17T13:16:41.218Z,948.51
2018-06-17T13:19:07.535Z,948.46
2018-06-17T13:21:34.874Z,948.51
2018-06-17T13:24:01.163Z,948.44
2018-06-17T13:26:27.459Z,948.47
2018-06-17T13:28:53.807Z,948.38
2018-06-17T13:31:20.170Z,948.48
2018-06-17T13:33:46.461Z,948.49
2018-06-17T13:36:12.793Z,948.55
2018-06-17T13:38:39.082Z,948.67
2018-06-17T13:41:05.374Z,948.61
2018-06-17T13:43:31.716Z,948.60
2018-06-17T13:45:58.005Z,948.57
2018-06-17T13:48:24.290Z,948.65
2018-06-17T13:50:50.588Z,948.67
2018-06-17T13:53:16.917Z,948.78
2018-06-17T13:55:43.208Z,948.82
2018-06-17T13:58:09.515Z,948.85
2018-06-17T14:00:35.799Z,948.99
2018-06-17T14:03:02.347Z,948.91
2018-06-17T14:05:28.668Z,948.77
2018-06-17T14:07:54.958Z,948.77
2018-06-17T14:10:21.247Z,948.80
2018-06-17T14:12:47.539Z,948.80
2018-06-17T14:15:13.826Z,948.84
2018-06-17T14:17:40.160Z,948.73
2018-06-17T14:20:06.461Z,948.77
2018-06-17T14:22:32.747Z,948.76
2018-06-17T14:24:59.062Z,948.83
2018-06-17T14:27:25.359Z,948.92
2018-06-17T14:29:51.646Z,948.93
2018-06-17T14:32:17.967Z,948.94
2018-06-17T14:34:44.260Z,949.01
2018-06-17T14:37:10.547Z,949.06
2018-06-17T14:39:36.866Z,949.07
2018-06-17T14:42:03.166Z,949.09
2018-06-17T14:44:29.456Z,949.12
2018-06-17T14:46:58.066Z,949.06
2018-06-17T14:49:24.359Z,949.06
2018-06-17T14:51:50.608Z,949.00
2018-06-17T14:54:16.928Z,949.00
2018-06-17T14:56:43.222Z,949.02
2018-06-17T14:59:09.508Z,949.04
2018-06-17T15:01:35.847Z,949.05
2018-06-17T15:04:02.135Z,949.06
2018-06-17T15:06:28.428Z,948.99
2018-06-17T15:08:54.758Z,949.03
2018-06-17T15:11:21.033Z,948.97
2018-06-17T15:13:47.321Z,948.93
2018-06-17T15:16:13.647Z,949.07
2018-06-17T15:18:39.939Z,949.07
2018-06-17T15:21:06.232Z,949.08
2018-06-17T15:23:32.525Z,949.11
2018-06-17T15:25:58.826Z,949.11
2018-06-17T15:28:25.199Z,949.12
2018-06-17T15:30:51.501Z,949.09
2018-06-17T15:33:17.796Z,949.14
2018-06-17T15:35:44.117Z,949.28
2018-06-17T15:38:10.417Z,949.26
2018-06-17T15:40:36.754Z,949.36
2018-06-17T15:43:03.060Z,949.42
2018-06-17T15:45:29.392Z,949.38
2018-06-17T15:47:55.719Z,949.41
2018-06-17T15:50:22.016Z,949.44
2018-06-17T15:52:48.299Z,949.47
2018-06-17T15:55:14.615Z,949.49
2018-06-17T15:57:40.888Z,949.42
2018-06-17T16:00:07.215Z,949.46
2018-06-17T16:02:33.521Z,949.51
2018-06-17T16:04:59.845Z,949.50
2018-06-17T16:07:26.141Z,949.53
2018-06-17T16:09:52.427Z,949.56
2018-06-17T16:12:18.787Z,949.60
2018-06-17T16:14:45.112Z,949.75
2018-06-17T16:17:11.416Z,949.80
2018-06-17T16:19:37.780Z,949.80
2018-06-17T16:22:04.068Z,949.82
2018-06-17T16:24:30.358Z,949.80
2018-06-17T16:26:56.659Z,949.82
2018-06-17T16:29:22.983Z,949.81
2018-06-17T16:31:49.293Z,949.78
2018-06-17T16:34:15.586Z,949.86
2018-06-17T16:36:41.882Z,949.88
2018-06-17T16:39:08.282Z,949.95
2018-06-17T16:41:34.574Z,949.93
2018-06-17T16:44:00.864Z,949.96
2018-06-17T16:46:27.167Z,949.97
2018-06-17T16:48:53.507Z,950.02
2018-06-17T16:51:19.841Z,949.99
2018-06-17T16:53:46.215Z,949.94
2018-06-17T16:56:12.504Z,949.90
2018-06-17T16:58:38.830Z,949.85
2018-06-17T17:01:05.252Z,949.87
2018-06-17T17:03:31.613Z,949.89
2018-06-17T17:05:58.522Z,949.87
2018-06-17T17:08:24.823Z,949.88
2018-06-17T17:10:51.152Z,949.93
2018-06-17T17:13:17.490Z,949.95
2018-06-17T17:15:43.788Z,950.02
2018-06-17T17:18:10.074Z,950.04
2018-06-17T17:20:36.394Z,950.04
2018-06-17T17:23:02.693Z,950.18
2018-06-17T17:25:28.985Z,950.19
2018-06-17T17:27:55.316Z,950.18
2018-06-17T17:30:21.609Z,950.14
2018-06-17T17:32:47.944Z,950.20
2018-06-17T17:35:14.259Z,950.22
2018-06-17T17:37:40.570Z,950.19
2018-06-17T17:40:06.871Z,950.21
2018-06-17T17:42:33.168Z,950.20
2018-06-17T17:44:59.509Z,950.17
2018-06-17T17:47:25.812Z,950.21
2018-06-17T17:49:52.106Z,950.11
2018-06-17T17:52:18.404Z,950.14
2018-06-17T17:54:44.694Z,950.08
2018-06-17T17:57:10.990Z,950.11
2018-06-17T17:59:37.284Z,950.15
2018-06-17T18:02:03.612Z,950.15
2018-06-17T18:04:29.911Z,950.17
2018-06-17T18:06:56.206Z,950.24
2018-06-17T18:09:22.533Z,950.18
2018-06-17T18:11:48.824Z,950.26
2018-06-17T18:14:15.113Z,950.26
2018-06-17T18:16:41.436Z,950.28
2018-06-17T18:19:07.729Z,950.28
2018-06-17T18:21:34.021Z,950.30
2018-06-17T18:24:00.323Z,950.34
2018-06-17T18:26:26.610Z,950.43
2018-06-17T18:28:52.937Z,950.42
2018-06-17T18:31:19.230Z,950.39
2018-06-17T18:33:45.525Z,950.38
2018-06-17T18:36:12.089Z,950.38
2018-06-17T18:38:38.320Z,950.33
2018-06-17T18:41:04.640Z,950.41
2018-06-17T18:43:30.940Z,950.39
2018-06-17T18:45:57.230Z,950.37
2018-06-17T18:48:23.524Z,950.38
2018-06-17T18:50:49.822Z,950.37
2018-06-17T18:53:16.146Z,950.36
2018-06-17T18:55:42.437Z,950.37
2018-06-17T18:58:08.729Z,950.33
2018-06-17T19:00:35.032Z,950.25
2018-06-17T19:03:01.320Z,950.27
2018-06-17T19:05:27.644Z,950.25
2018-06-17T19:07:53.933Z,950.26
2018-06-17T19:10:20.227Z,950.34
2018-06-17T19:12:46.571Z,950.35
2018-06-17T19:15:12.879Z,950.32
2018-06-17T19:17:39.180Z,950.39
2018-06-17T19:20:05.506Z,950.36
2018-06-17T19:22:31.809Z,950.46
2018-06-17T19:24:58.987Z,950.46
2018-06-17T19:27:25.526Z,950.50
2018-06-17T19:29:51.812Z,950.45
2018-06-17T19:32:18.105Z,950.42
2018-06-17T19:34:44.392Z,950.43
2018-06-17T19:37:10.736Z,950.53
2018-06-17T19:39:37.027Z,950.56
2018-06-17T19:42:03.321Z,950.56
2018-06-17T19:44:29.642Z,950.65
2018-06-17T19:46:55.957Z,950.62
2018-06-17T19:49:22.315Z,950.64
2018-06-17T19:51:48.545Z,950.63
2018-06-17T19:54:14.839Z,950.60
2018-06-17T19:56:41.174Z,950.62
2018-06-17T19:59:07.466Z,950.66
2018-06-17T20:01:33.761Z,950.69
2018-06-17T20:04:00.101Z,950.77
2018-06-17T20:06:26.572Z,950.79
2018-06-17T20:08:52.713Z,950.78
2018-06-17T20:11:19.010Z,950.75
2018-06-17T20:13:45.361Z,950.70
2018-06-17T20:16:11.646Z,950.77
2018-06-17T20:18:37.948Z,950.72
2018-06-17T20:21:04.241Z,950.74
2018-06-17T20:23:30.545Z,950.76
2018-06-17T20:25:56.851Z,950.73
2018-06-17T20:28:23.183Z,950.78
2018-06-17T20:30:49.479Z,950.83
2018-06-17T20:33:15.786Z,950.80
2018-06-17T20:35:42.142Z,950.82
2018-06-17T20:38:08.405Z,950.88
2018-06-17T20:40:34.700Z,950.90
2018-06-17T20:43:01.022Z,950.87
2018-06-17T20:45:27.317Z,950.95
2018-06-17T20:47:53.661Z,950.90
2018-06-17T20:50:19.928Z,950.85
2018-06-17T20:52:46.226Z,950.94
2018-06-17T20:55:12.568Z,950.89
2018-06-17T20:57:38.903Z,950.82
2018-06-17T21:00:05.203Z,950.84
2018-06-17T21:02:31.505Z,950.83
2018-06-17T21:04:57.809Z,950.86
2018-06-17T21:07:24.109Z,950.79
2018-06-17T21:09:50.453Z,950.77
2018-06-17T21:12:16.750Z,950.82
2018-06-17T21:14:43.047Z,950.76
2018-06-17T21:17:09.343Z,950.90
2018-06-17T21:19:35.637Z,950.85
2018-06-17T21:22:01.956Z,950.91
2018-06-17T21:24:28.288Z,950.85
2018-06-17T21:26:54.604Z,950.91
2018-06-17T21:29:20.913Z,950.88
2018-06-17T21:31:47.218Z,950.80
2018-06-17T21:34:13.605Z,950.84
2018-06-17T21:36:39.920Z,950.78
2018-06-17T21:39:06.206Z,950.70
2018-06-17T21:41:32.512Z,950.71
2018-06-17T21:43:58.806Z,950.70
2018-06-17T21:46:25.147Z,950.71
2018-06-17T21:48:51.446Z,950.69
2018-06-17T21:51:17.739Z,950.64
2018-06-17T21:53:44.033Z,950.65
2018-06-17T21:56:10.325Z,950.68
2018-06-17T21:58:36.647Z,950.68
2018-06-17T22:01:02.938Z,950.68
2018-06-17T22:03:29.233Z,950.61
2018-06-17T22:05:55.529Z,950.59
2018-06-17T22:08:21.817Z,950.64
2018-06-17T22:10:48.138Z,950.62
2018-06-17T22:13:14.440Z,950.55
2018-06-17T22:15:40.742Z,950.54
2018-06-17T22:18:07.028Z,950.42
2018-06-17T22:20:33.329Z,950.41
2018-06-17T22:22:59.647Z,950.48
2018-06-17T22:25:25.945Z,950.44
2018-06-17T22:27:52.233Z,950.42
2018-06-17T22:30:18.552Z,950.44
2018-06-17T22:32:44.866Z,950.41
2018-06-17T22:35:11.167Z,950.36
2018-06-17T22:37:37.464Z,950.31
2018-06-17T22:40:03.760Z,950.29
2018-06-17T22:42:30.098Z,950.37
2018-06-17T22:44:56.376Z,950.46
2018-06-17T22:47:22.669Z,950.51
2018-06-17T22:49:48.967Z,950.52
2018-06-17T22:52:15.261Z,950.43
2018-06-17T22:54:41.586Z,950.44
2018-06-17T22:57:07.883Z,950.44
2018-06-17T22:59:34.168Z,950.47
2018-06-17T23:02:00.488Z,950.48
2018-06-17T23:04:26.781Z,950.38
2018-06-17T23:06:53.074Z,950.34
2018-06-17T23:09:19.405Z,950.36
2018-06-17T23:11:45.699Z,950.44
2018-06-17T23:14:11.991Z,950.43
2018-06-17T23:16:38.288Z,950.48
2018-06-17T23:19:04.578Z,950.45
2018-06-17T23:21:30.900Z,950.41
2018-06-17T23:23:57.188Z,950.46
2018-06-17T23:26:23.480Z,950.41
2018-06-17T23:28:49.804Z,950.31
2018-06-17T23:31:16.094Z,950.31
2018-06-17T23:33:42.386Z,950.28
2018-06-17T23:36:08.681Z,950.24
2018-06-17T23:38:34.974Z,950.28
2018-06-17T23:41:01.312Z,950.28
2018-06-17T23:43:27.610Z,950.24
2018-06-17T23:45:53.916Z,950.27
2018-06-17T23:48:20.230Z,950.31
2018-06-17T23:50:46.521Z,950.30
2018-06-17T23:53:12.817Z,950.22
2018-06-17T23:55:39.113Z,950.21
2018-06-17T23:58:05.406Z,950.19
